Time;durP1;ratioP1;P1;durP2;ratioP2;P2;SDS_P1;SDS_P2;PMS_P1;PMS_P2;Temp;Humidity;BMP_temperature;BMP_pressure;BME280_temperature;BME280_humidity;BME280_pressure;Samples;Min_cycle;Max_cycle;Signal;HPM_P1;HPM_P2
2023/04/10 00:00:56;;;;;;;12.10;8.45;;;;;;;8.00;100.00;101941.22;5219830;28;20057;-66
2023/04/10 00:03:28;;;;;;;12.18;8.00;;;;;;;7.95;100.00;101936.09;5223250;28;20120;-66
2023/04/10 00:05:59;;;;;;;12.07;8.05;;;;;;;7.96;100.00;101929.00;5218672;28;20113;-66
2023/04/10 00:08:31;;;;;;;11.52;8.27;;;;;;;7.96;100.00;101926.34;5219287;28;20021;-66
2023/04/10 00:11:02;;;;;;;11.45;7.55;;;;;;;7.94;100.00;101915.78;5216825;28;20021;-67
2023/04/10 00:13:34;;;;;;;11.48;7.68;;;;;;;7.92;100.00;101912.34;5215450;28;20052;-67
2023/04/10 00:16:06;;;;;;;11.80;7.85;;;;;;;7.95;100.00;101903.34;5217047;28;20033;-67
2023/04/10 00:18:37;;;;;;;10.38;7.88;;;;;;;7.93;100.00;101899.91;5221659;28;20029;-67
2023/04/10 00:21:08;;;;;;;11.18;7.78;;;;;;;7.94;100.00;101898.97;5218090;28;20025;-66
2023/04/10 00:23:40;;;;;;;12.82;7.70;;;;;;;7.97;100.00;101886.38;5218888;28;20051;-66
2023/04/10 00:26:11;;;;;;;12.88;7.95;;;;;;;7.94;100.00;101894.53;5217875;28;20376;-66
2023/04/10 00:28:43;;;;;;;10.98;7.35;;;;;;;7.95;100.00;101890.91;5215934;28;20038;-66
2023/04/10 00:31:14;;;;;;;11.88;7.45;;;;;;;7.99;100.00;101891.63;5221229;28;20022;-66
2023/04/10 00:33:45;;;;;;;11.95;7.90;;;;;;;7.99;100.00;101888.97;5218854;28;20106;-66
2023/04/10 00:36:18;;;;;;;9.95;7.15;;;;;;;8.00;100.00;101890.72;5221672;28;20044;-66
2023/04/10 00:38:49;;;;;;;10.55;7.40;;;;;;;7.99;100.00;101878.34;5219579;28;20061;-67
2023/04/10 00:41:22;;;;;;;13.60;7.45;;;;;;;7.97;100.00;101881.06;5216670;28;20120;-67
2023/04/10 00:43:55;;;;;;;9.93;7.07;;;;;;;7.93;100.00;101871.53;5218099;28;20435;-67
2023/04/10 00:46:27;;;;;;;9.45;7.10;;;;;;;7.89;100.00;101864.66;5218549;28;20108;-67
2023/04/10 00:48:59;;;;;;;9.52;7.00;;;;;;;7.90;100.00;101871.69;5212927;28;20021;-67
2023/04/10 00:51:31;;;;;;;12.13;7.75;;;;;;;7.88;100.00;101875.34;5215972;28;20038;-66
2023/04/10 00:54:02;;;;;;;10.93;7.82;;;;;;;7.85;100.00;101873.72;5214870;28;20060;-66
2023/04/10 00:56:34;;;;;;;9.43;6.80;;;;;;;7.84;100.00;101869.31;5219438;28;20035;-66
2023/04/10 00:59:05;;;;;;;10.43;7.65;;;;;;;7.84;100.00;101870.19;5217761;28;20061;-67
2023/04/10 01:01:37;;;;;;;10.35;7.65;;;;;;;7.81;100.00;101867.69;5215678;28;20046;-66
2023/04/10 01:04:09;;;;;;;11.05;7.55;;;;;;;7.80;100.00;101873.06;5216600;28;20439;-67
2023/04/10 01:06:48;;;;;;;10.63;7.80;;;;;;;7.75;100.00;101867.97;5217362;28;20040;-67
2023/04/10 01:09:31;;;;;;;9.70;7.18;;;;;;;7.73;100.00;101868.97;5214838;28;20122;-66
2023/04/10 01:12:08;;;;;;;10.70;7.38;;;;;;;7.70;100.00;101871.78;5218871;28;20047;-67
2023/04/10 01:15:04;;;;;;;11.25;7.10;;;;;;;7.71;100.00;101863.75;5219471;28;20040;-67
2023/04/10 01:18:13;;;;;;;10.52;7.07;;;;;;;7.69;100.00;101862.09;5214466;28;20017;-66
2023/04/10 01:20:44;;;;;;;10.65;7.85;;;;;;;7.65;100.00;101856.06;5215985;28;20601;-66
2023/04/10 01:23:39;;;;;;;9.57;7.22;;;;;;;7.65;100.00;101848.97;5218964;28;20587;-67
2023/04/10 01:26:12;;;;;;;;;;;;;;;7.68;100.00;101850.59;5218595;28;20056;-67
2023/04/10 01:29:00;;;;;;;9.88;6.82;;;;;;;7.64;100.00;101852.56;5219388;28;19921;-67
2023/04/10 01:31:45;;;;;;;11.27;7.78;;;;;;;7.63;100.00;101853.50;5219659;28;20022;-67
2023/04/10 01:34:22;;;;;;;11.18;7.22;;;;;;;7.61;100.00;101844.75;5216815;28;20116;-66
2023/04/10 01:37:03;;;;;;;11.45;7.80;;;;;;;7.63;100.00;101849.97;5217962;28;20025;-67
2023/04/10 01:39:39;;;;;;;10.70;7.25;;;;;;;7.62;100.00;101845.59;5222919;28;20445;-67
2023/04/10 01:42:13;;;;;;;11.05;7.88;;;;;;;7.56;100.00;101846.75;5219918;28;20064;-66
2023/04/10 01:44:46;;;;;;;;;;;;;;;7.60;100.00;101842.16;5218512;28;20068;-66
2023/04/10 01:47:18;;;;;;;11.45;7.15;;;;;;;7.51;100.00;101834.63;5219445;28;19964;-66
2023/04/10 01:49:51;;;;;;;10.85;7.75;;;;;;;7.45;100.00;101839.28;5221391;28;20032;-67
2023/04/10 01:52:24;;;;;;;10.90;7.70;;;;;;;7.43;100.00;101833.19;5219442;28;20041;-66
2023/04/10 01:54:57;;;;;;;10.18;6.85;;;;;;;7.44;100.00;101834.03;5223268;28;20100;-66
2023/04/10 01:57:30;;;;;;;9.73;7.32;;;;;;;7.35;100.00;101827.38;5221088;28;20036;-66
2023/04/10 02:00:03;;;;;;;9.93;7.63;;;;;;;7.38;100.00;101818.41;5218922;28;20128;-66
2023/04/10 02:02:34;;;;;;;10.48;7.22;;;;;;;7.37;100.00;101819.34;5227158;28;20028;-67
2023/04/10 02:05:06;;;;;;;12.00;7.25;;;;;;;7.38;100.00;101813.09;5220061;28;20453;-66
2023/04/10 02:07:45;;;;;;;11.68;7.43;;;;;;;7.32;100.00;101802.78;5220746;28;20030;-66
2023/04/10 02:10:30;;;;;;;10.07;7.60;;;;;;;7.33;100.00;101799.19;5216408;28;20404;-66
2023/04/10 02:13:05;;;;;;;10.05;7.35;;;;;;;7.29;100.00;101794.94;5222657;28;20053;-66
2023/04/10 02:15:41;;;;;;;11.43;7.45;;;;;;;7.26;100.00;101786.19;5220361;28;20590;-67
2023/04/10 02:18:16;;;;;;;10.38;7.20;;;;;;;7.23;100.00;101790.81;5222305;28;20030;-66
2023/04/10 02:20:48;;;;;;;10.63;7.40;;;;;;;7.26;100.00;101791.50;5221003;28;20049;-66
2023/04/10 02:23:20;;;;;;;10.32;7.05;;;;;;;7.21;100.00;101790.88;5221302;28;20641;-66
2023/04/10 02:25:51;;;;;;;11.73;7.82;;;;;;;7.26;100.00;101780.88;5219677;28;20017;-67
2023/04/10 02:28:23;;;;;;;11.52;7.47;;;;;;;7.20;100.00;101788.28;5221931;28;20029;-66
2023/04/10 02:30:54;;;;;;;12.38;7.57;;;;;;;7.21;100.00;101784.69;5221132;28;20025;-66
2023/04/10 02:33:25;;;;;;;10.32;7.57;;;;;;;7.18;100.00;101785.72;5224203;28;20086;-67
2023/04/10 02:35:58;;;;;;;10.30;7.53;;;;;;;7.22;100.00;101781.97;5228629;28;20033;-66
2023/04/10 02:38:30;;;;;;;9.93;6.80;;;;;;;7.13;100.00;101784.19;5221451;28;20518;-66
2023/04/10 02:41:01;;;;;;;10.70;6.95;;;;;;;7.16;100.00;101784.91;5220595;28;20013;-66
2023/04/10 02:43:33;;;;;;;11.43;7.57;;;;;;;7.13;100.00;101781.53;5221304;28;20321;-67
2023/04/10 02:46:04;;;;;;;12.45;7.65;;;;;;;7.13;100.00;101786.84;5221740;28;20432;-67
2023/04/10 02:48:36;;;;;;;11.88;7.38;;;;;;;7.14;100.00;101793.91;5219665;28;20488;-66
2023/04/10 02:51:08;;;;;;;10.73;7.40;;;;;;;7.16;100.00;101795.53;5224047;28;20091;-67
2023/04/10 02:53:39;;;;;;;11.05;7.57;;;;;;;7.14;100.00;101792.09;5223607;28;20037;-67
2023/04/10 02:56:11;;;;;;;9.82;7.18;;;;;;;7.13;100.00;101781.53;5225826;28;20040;-67
2023/04/10 02:58:45;;;;;;;10.73;7.57;;;;;;;7.18;100.00;101783.06;5225636;28;20044;-66
2023/04/10 03:01:16;;;;;;;12.75;7.65;;;;;;;7.21;100.00;101779.38;5219447;28;20408;-66
2023/04/10 03:03:47;;;;;;;9.70;7.18;;;;;;;7.13;100.00;101773.59;5218448;28;20036;-67
2023/04/10 03:06:19;;;;;;;11.15;7.80;;;;;;;7.08;100.00;101776.47;5216041;28;20435;-66
2023/04/10 03:08:51;;;;;;;9.73;7.43;;;;;;;7.13;100.00;101777.09;5218404;28;20021;-67
2023/04/10 03:11:22;;;;;;;10.88;7.50;;;;;;;7.07;100.00;101780.03;5218615;28;20547;-67
2023/04/10 03:13:54;;;;;;;10.10;6.88;;;;;;;7.18;100.00;101787.50;5218808;28;20033;-66
2023/04/10 03:16:25;;;;;;;12.43;7.68;;;;;;;7.02;100.00;101793.53;5220729;28;20182;-67
2023/04/10 03:18:57;;;;;;;11.90;8.05;;;;;;;7.09;100.00;101799.41;5218588;28;20430;-67
2023/04/10 03:21:28;;;;;;;12.25;8.52;;;;;;;7.05;100.00;101792.53;5223147;28;20104;-67
2023/04/10 03:24:00;;;;;;;9.07;6.70;;;;;;;6.99;100.00;101801.63;5223645;28;20037;-66
2023/04/10 03:26:31;;;;;;;9.98;7.57;;;;;;;6.96;100.00;101800.91;5220800;28;20021;-66
2023/04/10 03:29:03;;;;;;;12.40;7.38;;;;;;;6.95;100.00;101794.75;5219260;28;20032;-67
2023/04/10 03:31:34;;;;;;;13.27;7.63;;;;;;;6.93;100.00;101791.31;5217548;28;20498;-67
2023/04/10 03:34:06;;;;;;;9.80;6.85;;;;;;;6.91;100.00;101787.84;5222106;28;20422;-67
2023/04/10 03:36:37;;;;;;;10.52;7.50;;;;;;;6.89;100.00;101779.13;5219937;28;20037;-67
2023/04/10 03:39:09;;;;;;;11.20;7.53;;;;;;;6.85;100.00;101773.09;5225674;28;20105;-66
2023/04/10 03:41:40;;;;;;;12.60;7.85;;;;;;;6.83;100.00;101761.69;5220542;28;20040;-67
2023/04/10 03:44:11;;;;;;;10.82;7.85;;;;;;;6.83;100.00;101766.13;5214602;28;20112;-67
2023/04/10 03:46:43;;;;;;;11.57;7.95;;;;;;;6.79;100.00;101767.22;5217544;28;20029;-67
2023/04/10 03:49:15;;;;;;;11.43;7.32;;;;;;;6.78;100.00;101762.81;5217021;28;20032;-66
2023/04/10 03:51:46;;;;;;;11.85;8.30;;;;;;;6.78;100.00;101766.34;5219083;28;20061;-67
2023/04/10 03:54:17;;;;;;;12.15;8.00;;;;;;;6.74;100.00;101753.28;5218056;28;20056;-67
2023/04/10 03:56:49;;;;;;;11.07;7.78;;;;;;;6.71;100.00;101759.56;5216847;28;20399;-67
2023/04/10 03:59:20;;;;;;;10.82;7.55;;;;;;;6.71;100.00;101759.56;5218123;28;20563;-67
2023/04/10 04:01:52;;;;;;;12.40;8.25;;;;;;;6.74;100.00;101753.28;5220133;28;20052;-66
2023/04/10 04:04:24;;;;;;;13.07;8.38;;;;;;;6.67;100.00;101752.69;5224428;28;20038;-66
2023/04/10 04:06:56;;;;;;;12.15;7.72;;;;;;;6.64;100.00;101747.56;5222415;28;20021;-66
2023/04/10 04:09:27;;;;;;;11.68;7.72;;;;;;;6.64;100.00;101750.22;5223397;28;20041;-67
2023/04/10 04:11:59;;;;;;;10.77;7.57;;;;;;;6.62;100.00;101746.75;5216842;28;20026;-66
2023/04/10 04:14:30;;;;;;;11.13;7.60;;;;;;;6.57;100.00;101741.66;5220370;28;20056;-67
2023/04/10 04:17:02;;;;;;;13.45;9.25;;;;;;;6.58;100.00;101742.53;5218195;28;20116;-67
2023/04/10 04:19:33;;;;;;;11.75;8.60;;;;;;;6.56;100.00;101737.28;5218689;28;20038;-67
2023/04/10 04:22:04;;;;;;;12.45;8.38;;;;;;;6.58;100.00;101737.22;5219197;28;20122;-66
2023/04/10 04:24:36;;;;;;;12.40;8.75;;;;;;;6.51;100.00;101739.28;5218421;28;20453;-66
2023/04/10 04:27:07;;;;;;;11.68;8.02;;;;;;;6.51;100.00;101733.97;5218598;28;20656;-67
2023/04/10 04:29:39;;;;;;;13.18;8.25;;;;;;;6.47;100.00;101733.25;5217183;28;20033;-67
2023/04/10 04:32:10;;;;;;;15.20;8.80;;;;;;;6.46;100.00;101731.56;5215371;28;20029;-67
2023/04/10 04:34:41;;;;;;;13.68;8.85;;;;;;;6.46;100.00;101722.72;5216822;28;20037;-66
2023/04/10 04:37:13;;;;;;;12.20;8.50;;;;;;;6.42;100.00;101724.66;5217309;28;20037;-66
2023/04/10 04:39:44;;;;;;;13.75;9.25;;;;;;;6.46;100.00;101723.59;5220267;28;20033;-66
2023/04/10 04:42:15;;;;;;;11.93;8.02;;;;;;;6.45;100.00;101727.16;5217609;28;20026;-67
2023/04/10 04:44:48;;;;;;;10.75;8.18;;;;;;;6.41;100.00;101720.28;5217082;28;20049;-67
2023/04/10 04:47:19;;;;;;;13.35;8.80;;;;;;;6.46;100.00;101728.91;5218094;28;20057;-67
2023/04/10 04:49:51;;;;;;;12.48;8.68;;;;;;;6.46;100.00;101720.94;5218467;28;21367;-67
2023/04/10 04:52:22;;;;;;;12.88;8.32;;;;;;;6.49;100.00;101725.25;5215695;28;20764;-67
2023/04/10 04:54:54;;;;;;;17.42;9.07;;;;;;;6.39;100.00;101722.13;5216418;28;20057;-67
2023/04/10 04:57:25;;;;;;;14.15;9.48;;;;;;;6.37;100.00;101718.69;5219301;28;20194;-67
2023/04/10 04:59:56;;;;;;;13.05;8.40;;;;;;;6.41;100.00;101722.94;5215337;28;20051;-67
2023/04/10 05:02:28;;;;;;;13.75;8.75;;;;;;;6.37;100.00;101715.19;5216242;28;20033;-67
2023/04/10 05:04:59;;;;;;;14.25;9.13;;;;;;;6.36;100.00;101719.63;5216087;28;20025;-67
2023/04/10 05:07:31;;;;;;;11.27;8.55;;;;;;;6.45;100.00;101718.34;5215640;28;20428;-67
2023/04/10 05:10:03;;;;;;;12.75;9.40;;;;;;;6.42;100.00;101713.19;5217367;28;20415;-67
2023/04/10 05:12:35;;;;;;;12.95;9.35;;;;;;;6.35;100.00;101709.97;5218693;28;20542;-66
2023/04/10 05:15:06;;;;;;;13.35;8.88;;;;;;;6.40;100.00;101693.84;5220084;28;20054;-67
2023/04/10 05:17:38;;;;;;;12.73;8.95;;;;;;;6.40;100.00;101692.03;5221408;28;20037;-67
2023/04/10 05:20:10;;;;;;;12.88;9.10;;;;;;;6.37;100.00;101694.84;5219019;28;20021;-67
2023/04/10 05:22:41;;;;;;;12.88;9.25;;;;;;;6.42;100.00;101698.16;5220959;28;20029;-67
2023/04/10 05:25:13;;;;;;;12.55;8.68;;;;;;;6.47;100.00;101696.13;5225364;28;20029;-66
2023/04/10 05:27:44;;;;;;;12.80;9.45;;;;;;;6.39;100.00;101693.00;5218087;28;20116;-67
2023/04/10 05:30:15;;;;;;;10.90;8.15;;;;;;;6.45;100.00;101689.19;5215498;28;20029;-67
2023/04/10 05:32:47;;;;;;;13.55;8.63;;;;;;;6.46;100.00;101691.78;5219078;28;20033;-66
2023/04/10 05:35:18;;;;;;;11.68;8.65;;;;;;;6.58;100.00;101694.81;5216025;28;20667;-67
2023/04/10 05:37:50;;;;;;;14.20;9.23;;;;;;;6.57;100.00;101696.56;5217855;28;21188;-67
2023/04/10 05:40:21;;;;;;;11.43;8.18;;;;;;;6.63;100.00;101693.63;5223094;28;20101;-67
2023/04/10 05:42:52;;;;;;;12.52;8.20;;;;;;;6.62;100.00;101691.94;5216328;28;20014;-67
2023/04/10 05:45:24;;;;;;;12.60;8.60;;;;;;;6.67;100.00;101691.69;5217162;28;20477;-66
2023/04/10 05:47:55;;;;;;;13.20;9.15;;;;;;;6.65;100.00;101688.25;5215942;28;20360;-67
2023/04/10 05:50:27;;;;;;;12.30;8.32;;;;;;;6.70;100.00;101686.28;5218095;28;20640;-67
2023/04/10 05:52:58;;;;;;;11.65;7.85;;;;;;;6.81;100.00;101697.25;5216239;28;20639;-67
2023/04/10 05:55:30;;;;;;;12.18;7.82;;;;;;;6.86;100.00;101695.25;5217255;28;20438;-67
2023/04/10 05:58:02;;;;;;;11.07;7.55;;;;;;;6.90;100.00;101698.56;5219636;28;20037;-67
2023/04/10 06:00:33;;;;;;;10.80;7.53;;;;;;;7.01;100.00;101700.72;5222477;28;20400;-67
2023/04/10 06:03:05;;;;;;;12.00;7.60;;;;;;;7.03;100.00;101698.88;5220781;28;20625;-67
2023/04/10 06:05:36;;;;;;;10.73;7.68;;;;;;;7.12;100.00;101700.22;5222624;28;20387;-67
2023/04/10 06:08:07;;;;;;;10.63;7.40;;;;;;;7.20;100.00;101708.66;5220290;28;20030;-67
2023/04/10 06:10:39;;;;;;;10.23;7.00;;;;;;;7.24;100.00;101705.78;5222289;28;20030;-67
2023/04/10 06:13:11;;;;;;;11.38;7.80;;;;;;;7.30;100.00;101701.13;5221469;28;20451;-67
2023/04/10 06:15:42;;;;;;;9.95;7.13;;;;;;;7.38;100.00;101693.63;5227533;28;20237;-67
2023/04/10 06:18:14;;;;;;;12.20;7.32;;;;;;;7.46;100.00;101688.81;5222048;28;20038;-67
2023/04/10 06:20:45;;;;;;;11.32;7.50;;;;;;;7.52;100.00;101691.16;5222816;28;20033;-67
2023/04/10 06:23:17;;;;;;;10.82;7.65;;;;;;;7.59;100.00;101689.94;5223019;28;20041;-67
2023/04/10 06:25:48;;;;;;;10.13;7.22;;;;;;;7.64;100.00;101682.56;5228095;28;20033;-67
2023/04/10 06:28:20;;;;;;;10.98;7.45;;;;;;;7.69;100.00;101676.16;5229370;28;20033;-67
2023/04/10 06:30:51;;;;;;;11.57;8.18;;;;;;;7.75;100.00;101667.91;5230007;28;20055;-67
2023/04/10 06:33:23;;;;;;;9.65;7.13;;;;;;;7.84;100.00;101667.41;5225806;28;20649;-67
2023/04/10 06:35:54;;;;;;;10.25;7.15;;;;;;;7.90;100.00;101658.25;5227854;28;20025;-67
2023/04/10 06:38:26;;;;;;;10.65;7.32;;;;;;;7.97;100.00;101659.66;5230898;28;20435;-67
2023/04/10 06:40:57;;;;;;;10.77;7.70;;;;;;;8.03;100.00;101659.31;5236387;28;20028;-67
2023/04/10 06:43:30;;;;;;;11.02;7.28;;;;;;;8.08;100.00;101644.00;5235085;28;20442;-67
2023/04/10 06:46:03;;;;;;;11.98;7.82;;;;;;;8.16;100.00;101646.25;5231573;28;20033;-67
2023/04/10 06:48:35;;;;;;;10.27;6.85;;;;;;;8.23;100.00;101647.66;5230664;28;20112;-67
2023/04/10 06:51:06;;;;;;;13.10;7.45;;;;;;;8.30;100.00;101638.38;5235229;28;20409;-67
2023/04/10 06:53:38;;;;;;;9.25;6.82;;;;;;;8.36;100.00;101635.41;5226099;28;20782;-67
2023/04/10 06:56:09;;;;;;;10.50;7.85;;;;;;;8.43;100.00;101634.13;5223572;28;20033;-67
2023/04/10 06:58:41;;;;;;;9.98;7.35;;;;;;;8.49;100.00;101622.31;5219826;28;20051;-67
2023/04/10 07:01:12;;;;;;;11.00;7.63;;;;;;;8.55;100.00;101623.78;5216965;28;20045;-67
2023/04/10 07:03:43;;;;;;;10.10;7.43;;;;;;;8.60;100.00;101614.59;5223222;28;20100;-67
2023/04/10 07:06:15;;;;;;;9.57;6.88;;;;;;;8.68;100.00;101619.47;5229483;28;20025;-67
2023/04/10 07:08:48;;;;;;;9.25;6.65;;;;;;;8.75;100.00;101609.38;5226113;28;20132;-67
2023/04/10 07:11:19;;;;;;;11.35;7.45;;;;;;;8.82;100.00;101605.41;5230981;28;21076;-67
2023/04/10 07:13:52;;;;;;;10.50;7.00;;;;;;;8.85;100.00;101602.56;5230374;28;20034;-67
2023/04/10 07:16:24;;;;;;;9.45;7.07;;;;;;;8.91;100.00;101604.88;5228664;28;20161;-67
2023/04/10 07:18:56;;;;;;;10.40;7.70;;;;;;;8.94;100.00;101595.88;5236637;28;20033;-67
2023/04/10 07:21:27;;;;;;;9.77;6.80;;;;;;;9.06;100.00;101595.16;5234140;28;20474;-67
2023/04/10 07:23:58;;;;;;;10.32;7.03;;;;;;;9.12;100.00;101589.47;5228837;28;20041;-67
2023/04/10 07:26:30;;;;;;;9.40;6.63;;;;;;;9.15;100.00;101577.78;5236544;28;21343;-67
2023/04/10 07:29:02;;;;;;;9.43;6.10;;;;;;;9.22;100.00;101572.03;5229037;28;20040;-67
2023/04/10 07:31:33;;;;;;;9.95;7.05;;;;;;;9.26;100.00;101577.16;5226562;28;20026;-67
2023/04/10 07:34:05;;;;;;;8.32;6.20;;;;;;;9.35;100.00;101569.47;5228925;28;20025;-67
2023/04/10 07:36:37;;;;;;;11.43;7.47;;;;;;;9.48;100.00;101574.06;5226671;28;20372;-67
2023/04/10 07:39:08;;;;;;;9.38;6.72;;;;;;;9.55;100.00;101565.63;5231771;28;20287;-67
2023/04/10 07:41:39;;;;;;;8.65;6.40;;;;;;;9.66;100.00;101564.94;5229940;28;20443;-67
2023/04/10 07:44:12;;;;;;;9.93;6.85;;;;;;;9.74;100.00;101562.69;5225129;28;20025;-67
2023/04/10 07:46:43;;;;;;;9.63;6.78;;;;;;;9.79;100.00;101557.06;5226257;28;20087;-67
2023/04/10 07:49:15;;;;;;;11.55;6.50;;;;;;;9.91;100.00;101550.09;5226229;28;20029;-67
2023/04/10 07:51:46;;;;;;;12.40;6.68;;;;;;;10.07;100.00;101552.66;5228927;28;20044;-67
2023/04/10 07:54:17;;;;;;;10.32;6.45;;;;;;;10.15;100.00;101537.06;5231315;28;20025;-67
2023/04/10 07:56:51;;;;;;;8.27;6.25;;;;;;;10.31;100.00;101532.47;5232717;28;20025;-67
2023/04/10 07:59:22;;;;;;;10.95;6.22;;;;;;;10.44;100.00;101526.34;5228194;28;20033;-66
2023/04/10 08:01:54;;;;;;;10.50;6.53;;;;;;;10.54;100.00;101519.44;5223210;28;20511;-67
2023/04/10 08:04:26;;;;;;;9.02;6.47;;;;;;;10.77;100.00;101524.13;5233688;28;20372;-65
2023/04/10 08:06:57;;;;;;;10.35;7.78;;;;;;;10.94;100.00;101519.47;5226135;28;20052;-64
2023/04/10 08:09:29;;;;;;;12.00;8.25;;;;;;;11.05;100.00;101508.94;5228359;28;20096;-63
2023/04/10 08:12:02;;;;;;;14.18;6.78;;;;;;;11.15;100.00;101511.84;5219591;28;20040;-66
2023/04/10 08:14:33;;;;;;;9.20;6.50;;;;;;;11.19;100.00;101516.84;5233972;28;20037;-66
2023/04/10 08:17:05;;;;;;;9.05;6.18;;;;;;;11.27;100.00;101504.78;5227056;28;20026;-66
2023/04/10 08:19:36;;;;;;;9.32;6.90;;;;;;;11.31;100.00;101506.28;5227077;28;20022;-67
2023/04/10 08:22:08;;;;;;;11.35;6.90;;;;;;;11.33;100.00;101507.03;5233652;28;20025;-66
2023/04/10 08:24:39;;;;;;;12.95;6.70;;;;;;;11.44;100.00;101504.47;5229276;28;20031;-66
2023/04/10 08:27:10;;;;;;;8.75;6.90;;;;;;;11.46;100.00;101504.38;5230701;28;20032;-66
2023/04/10 08:29:42;;;;;;;8.75;6.93;;;;;;;11.48;100.00;101505.13;5233234;28;20056;-66
2023/04/10 08:32:13;;;;;;;9.65;7.60;;;;;;;11.62;100.00;101509.47;5235611;28;20033;-66
2023/04/10 08:34:45;;;;;;;11.13;8.88;;;;;;;11.69;100.00;101506.28;5225707;28;20033;-67
2023/04/10 08:37:18;;;;;;;12.45;8.48;;;;;;;11.73;100.00;101490.88;5234740;28;20071;-66
2023/04/10 08:39:49;;;;;;;12.17;9.27;;;;;;;11.88;100.00;101489.78;5232296;28;20108;-66
2023/04/10 08:42:21;;;;;;;9.88;7.40;;;;;;;11.95;100.00;101495.59;5236519;28;20365;-67
2023/04/10 08:44:52;;;;;;;13.25;9.63;;;;;;;12.01;100.00;101480.91;5233348;28;20395;-66
2023/04/10 08:47:27;;;;;;;9.32;7.50;;;;;;;12.10;100.00;101483.78;5232909;28;20041;-66
2023/04/10 08:50:05;;;;;;;8.60;6.40;;;;;;;12.16;100.00;101475.31;5229670;28;20033;-67
2023/04/10 08:52:42;;;;;;;13.25;10.32;;;;;;;12.25;100.00;101487.13;5234815;28;20025;-66
2023/04/10 08:55:14;;;;;;;13.05;9.85;;;;;;;12.34;100.00;101489.13;5254109;28;20028;-66
2023/04/10 08:57:46;;;;;;;10.82;7.68;;;;;;;12.32;100.00;101488.41;5231510;28;20029;-66
2023/04/10 09:00:18;;;;;;;9.70;6.90;;;;;;;12.35;100.00;101482.00;5227581;28;20141;-67
2023/04/10 09:02:54;;;;;;;7.72;6.47;;;;;;;12.43;100.00;101486.78;5229374;28;20132;-66
2023/04/10 09:05:29;;;;;;;8.18;6.10;;;;;;;12.48;100.00;101481.91;5230258;28;20043;-66
2023/04/10 09:08:00;;;;;;;8.13;6.10;;;;;;;12.50;100.00;101471.94;5232411;28;20365;-66
2023/04/10 09:10:31;;;;;;;10.15;6.22;;;;;;;12.59;100.00;101478.44;5224769;28;20036;-67
2023/04/10 09:13:03;;;;;;;7.20;5.70;;;;;;;12.70;100.00;101476.66;5231098;28;20033;-66
2023/04/10 09:15:59;;;;;;;9.13;6.20;;;;;;;12.78;100.00;101472.56;5238155;28;20399;-66
2023/04/10 09:18:44;;;;;;;8.02;6.18;;;;;;;12.84;100.00;101475.63;5232371;28;20456;-66
2023/04/10 09:21:20;;;;;;;8.00;6.28;;;;;;;12.94;100.00;101471.28;5235155;28;20044;-67
2023/04/10 09:24:00;;;;;;;12.20;6.57;;;;;;;13.03;100.00;101469.69;5234502;28;20021;-67
2023/04/10 09:26:32;;;;;;;8.27;5.85;;;;;;;13.06;100.00;101461.44;5226067;28;20048;-66
2023/04/10 09:29:06;;;;;;;7.25;5.68;;;;;;;13.13;100.00;101456.44;5233217;28;20029;-67
2023/04/10 09:31:37;;;;;;;8.05;5.80;;;;;;;13.16;100.00;101458.06;5232106;28;20025;-66
2023/04/10 09:34:15;;;;;;;7.63;5.70;;;;;;;13.26;100.00;101448.31;5231520;28;20510;-67
2023/04/10 09:37:02;;;;;;;8.32;5.95;;;;;;;13.34;100.00;101443.22;5233124;28;20379;-67
2023/04/10 09:39:37;;;;;;;8.50;6.30;;;;;;;13.34;100.00;101435.19;5230926;28;20041;-66
2023/04/10 09:42:10;;;;;;;7.18;5.82;;;;;;;13.30;100.00;101431.91;5226597;28;20028;-67
2023/04/10 09:44:42;;;;;;;8.43;5.63;;;;;;;13.43;100.00;101417.53;5229591;28;20079;-66
2023/04/10 09:47:13;;;;;;;7.90;5.80;;;;;;;13.41;100.00;101417.66;5228449;28;20426;-66
2023/04/10 09:49:48;;;;;;;8.73;5.50;;;;;;;13.43;100.00;101413.03;5227661;28;20391;-66
2023/04/10 09:52:28;;;;;;;7.65;5.28;;;;;;;13.41;100.00;101406.94;5230270;28;20545;-66
2023/04/10 09:55:04;;;;;;;8.82;5.63;;;;;;;13.44;100.00;101411.19;5232262;28;20356;-67
2023/04/10 09:57:35;;;;;;;10.35;5.90;;;;;;;13.51;100.00;101409.72;5231125;28;20037;-66
2023/04/10 10:00:08;;;;;;;8.23;5.30;;;;;;;13.57;100.00;101413.75;5235845;28;20060;-66
2023/04/10 10:02:40;;;;;;;7.28;5.43;;;;;;;13.66;100.00;101407.66;5234165;28;20085;-66
2023/04/10 10:05:12;;;;;;;7.15;4.97;;;;;;;13.70;100.00;101398.38;5231298;28;20549;-66
2023/04/10 10:07:44;;;;;;;7.00;5.07;;;;;;;13.81;100.00;101384.97;5235455;28;20093;-66
2023/04/10 10:10:16;;;;;;;7.47;5.03;;;;;;;13.91;100.00;101396.63;5228891;28;20109;-66
2023/04/10 10:13:00;;;;;;;5.10;4.20;;;;;;;14.05;100.00;101397.31;5224151;28;20739;-66
2023/04/10 10:15:42;;;;;;;5.88;4.57;;;;;;;14.18;100.00;101381.91;5223575;28;20037;-66
2023/04/10 10:18:32;;;;;;;6.47;5.03;;;;;;;14.26;100.00;101370.53;5218553;28;20033;-66
2023/04/10 10:21:04;;;;;;;6.65;4.95;;;;;;;14.41;100.00;101368.41;5225878;28;20040;-66
2023/04/10 10:23:37;;;;;;;6.70;4.78;;;;;;;14.47;100.00;101370.56;5229769;28;20033;-66
2023/04/10 10:26:09;;;;;;;6.65;4.57;;;;;;;14.55;100.00;101368.06;5233385;28;20027;-66
2023/04/10 10:28:42;;;;;;;6.88;4.80;;;;;;;14.68;100.00;101362.53;5230142;28;20022;-66
2023/04/10 10:31:13;;;;;;;5.80;4.70;;;;;;;14.83;100.00;101355.00;5224260;28;20875;-66
2023/04/10 10:33:46;;;;;;;5.95;4.30;;;;;;;14.92;100.00;101351.53;5224082;28;20033;-66
2023/04/10 10:36:19;;;;;;;5.75;4.10;;;;;;;15.04;100.00;101355.81;5233415;28;20391;-66
2023/04/10 10:39:15;;;;;;;5.30;4.10;;;;;;;15.21;100.00;101343.59;5228978;28;20025;-66
2023/04/10 10:41:57;;;;;;;6.18;3.92;;;;;;;15.29;100.00;101340.22;5234425;28;20041;-66
2023/04/10 10:44:41;;;;;;;7.25;4.32;;;;;;;15.36;100.00;101344.09;5223865;28;20152;-66
2023/04/10 10:47:23;;;;;;;6.07;4.00;;;;;;;15.43;100.00;101336.31;5232359;28;20120;-66
2023/04/10 10:49:55;;;;;;;6.22;3.50;;;;;;;15.52;100.00;101323.88;5227948;28;20098;-66
2023/04/10 10:52:56;;;;;;;5.25;4.07;;;;;;;15.64;100.00;101314.69;5233253;28;20069;-66
2023/04/10 10:55:35;;;;;;;6.13;3.97;;;;;;;15.56;100.00;101311.84;5229024;28;20072;-66
2023/04/10 10:58:08;;;;;;;6.18;3.70;;;;;;;15.59;99.97;101311.56;5234751;28;20028;-66
2023/04/10 11:00:51;;;;;;;5.10;4.00;;;;;;;15.60;100.00;101299.81;5232451;28;20057;-66
2023/04/10 11:03:22;;;;;;;5.25;4.15;;;;;;;15.62;100.00;101303.22;5229175;28;20171;-66
2023/04/10 11:05:58;;;;;;;5.53;4.10;;;;;;;15.76;100.00;101294.78;5230097;28;20041;-66
2023/04/10 11:08:34;;;;;;;5.45;3.50;;;;;;;15.99;100.00;101284.59;5232361;28;20033;-66
2023/04/10 11:11:07;;;;;;;5.05;3.47;;;;;;;16.08;100.00;101289.13;5229741;28;20071;-66
2023/04/10 11:13:40;;;;;;;5.78;3.85;;;;;;;16.17;100.00;101294.66;5228842;28;20718;-66
2023/04/10 11:16:12;;;;;;;7.50;4.20;;;;;;;16.32;100.00;101289.66;5231338;28;20033;-66
2023/04/10 11:18:43;;;;;;;5.35;3.90;;;;;;;16.31;100.00;101274.50;5240172;28;20040;-66
2023/04/10 11:21:20;;;;;;;5.47;3.70;;;;;;;16.37;100.00;101284.69;5224031;28;20373;-66
2023/04/10 11:23:54;;;;;;;6.60;4.05;;;;;;;16.46;100.00;101270.38;5235710;28;20032;-66
2023/04/10 11:26:42;;;;;;;5.20;3.97;;;;;;;16.65;95.54;101261.38;5227085;28;20656;-66
2023/04/10 11:29:16;;;;;;;4.57;3.70;;;;;;;16.70;96.74;101263.63;5231535;28;20063;-66
2023/04/10 11:31:55;;;;;;;;;;;;;;;16.75;100.00;101261.34;5235462;28;20071;-66
2023/04/10 11:34:27;;;;;;;4.50;3.83;;;;;;;16.72;100.00;101250.84;5231468;28;19916;-67
2023/04/10 11:37:01;;;;;;;5.13;4.00;;;;;;;16.72;100.00;101251.72;5246800;28;20563;-66
2023/04/10 11:39:33;;;;;;;5.97;4.38;;;;;;;16.83;95.03;101243.47;5232304;28;20068;-67
2023/04/10 11:42:04;;;;;;;5.25;3.92;;;;;;;16.77;93.96;101233.25;5231024;28;20083;-66
2023/04/10 11:44:38;;;;;;;5.32;3.55;;;;;;;16.82;97.32;101232.84;5229127;28;21229;-67
2023/04/10 11:47:11;;;;;;;4.78;3.65;;;;;;;16.80;97.55;101226.72;5233602;28;20452;-66